Ponce, PR

11:46 AM AST on August 19, 2017 (GMT -0400)
Fortuna | | Change Station
Active Advisory: Coastal Hazard Statement Active Notice: Coastal Hazard Statement

Elev 79 ft 18.03 °N, 66.53 °W | Updated 11 minutes ago

Partly Cloudy
Partly Cloudy
92.8 °F
Feels Like 110 °F
N
7.0
Wind Variable Wind from NW
Gusts 13.0 mph

Today
High -- | Low -- °F
--% Chance of Precip.
Yesterday
High -- | Low -- °F
Precip. -- in
Pressure 29.93 in
Visibility 10.0 miles
Clouds Few 2100 ft
Scattered Clouds 2900 ft
Scattered Clouds 5000 ft
Heat Index 110 °F
Dew Point 78 °F
Humidity 64%
Rainfall 0.00 in
Snow Depth Not available.
6:09 AM 6:49 PM
Waning Crescent, 6% visible
METAR TJSJ 191456Z 07018KT 10SM FEW021 SCT029 SCT050 31/26 A2993 RMK AO2 SLP133 VCSH SE S SW 60000 T03060256 51004
Pressure 29.93 in
Visibility 10.0 miles
Clouds Few 2100 ft
Scattered Clouds 2900 ft
Scattered Clouds 5000 ft
Heat Index 110 °F
Dew Point 78 °F
Humidity 64%
Rainfall 0.00 in
Snow Depth Not available.
6:09 AM 6:49 PM
Waning Crescent, 6% visible
METAR TJSJ 191456Z 07018KT 10SM FEW021 SCT029 SCT050 31/26 A2993 RMK AO2 SLP133 VCSH SE S SW 60000 T03060256 51004

Get Your Daily Forecast Email!

Thanks for signing up!

Be on the lookout for a verification email in your inbox.

You'll start receiving severe weather alerts in your inbox..

×

10-Day Weather Forecast

Almanac

Astronomy

Aug. 19, 2017 Rise Set
Actual Time
Civil Twilight
Nautical Twilight
Astronomical Twilight
Moon
Length of Visible Light
Length of Day
Tomorrow will be .
, % of the Moon is Illuminated

Today's Extremes

State Highs State Lows

Community

WunderPhotos

Category 6

Welcome to Category 6. This is the collective home for Weather Underground's featured writeups by Dr. Jeff Masters (right), Bob Henson (left), Chris Burt, and other regular contributors.

Nearby

Air Quality

  Air Quality AQ Index Pollutant
Not available.

Snow Depth

Station Depth Elevation

Earthquake Activity

City Distance Mag. Time & Date
Minimum magnitude displayed is 2.5.

Coastal Water Temperatures

Place Temperature

Stations

Nearby Weather Stations

Station Location Temp. Windchill Dew Point Humidity Wind Precip. Elev Updated Type
                   

Watches & Warnings

Coastal Hazard Statement
Issued: 4:30 AM AST Aug. 19, 2017 – National Weather Service

... High rip current risk in effect through this afternoon...

* location... southeast, Ponce and vicinity and southwest Puerto
Rico.

* Timing... through this afternoon.

* Impacts... strong currents that can carry away even the best
swimmers.

Precautionary/preparedness actions...

There is a high risk of rip currents.

Swim near a lifeguard. If caught in a rip current, relax and
float. Don't swim against the current. If able, swim in a
direction following the shoreline. If unable to escape, face the
shore and call or wave for help.